createdAt,value
2023-02-28T00:01:13.308Z,6.70
2023-02-28T00:03:39.892Z,5.13
2023-02-28T00:06:07.386Z,5.20
2023-02-28T00:08:34.609Z,5.13
2023-02-28T00:11:06.655Z,5.68
2023-02-28T00:13:35.498Z,6.40
2023-02-28T00:16:08.139Z,6.22
2023-02-28T00:18:34.666Z,4.57
2023-02-28T00:21:01.683Z,3.80
2023-02-28T00:23:31.154Z,4.60
2023-02-28T00:25:57.657Z,4.15
2023-02-28T00:28:25.149Z,4.93
2023-02-28T00:30:55.708Z,3.65
2023-02-28T00:33:22.836Z,4.22
2023-02-28T00:35:55.331Z,4.32
2023-02-28T00:38:21.844Z,6.43
2023-02-28T00:40:48.332Z,5.25
2023-02-28T00:43:14.798Z,3.65
2023-02-28T00:45:41.353Z,4.32
2023-02-28T00:48:09.163Z,4.28
2023-02-28T00:50:35.948Z,6.25
2023-02-28T00:53:05.163Z,6.07
2023-02-28T00:55:31.985Z,4.97
2023-02-28T00:57:58.741Z,4.88
2023-02-28T01:00:25.500Z,5.57
2023-02-28T01:02:51.948Z,4.88
2023-02-28T01:05:18.530Z,3.50
2023-02-28T01:07:45.425Z,5.82
2023-02-28T01:10:12.014Z,5.25
2023-02-28T01:12:38.575Z,5.60
2023-02-28T01:15:06.491Z,6.20
2023-02-28T01:17:34.162Z,6.82
2023-02-28T01:20:06.852Z,3.80
2023-02-28T01:22:36.300Z,5.13
2023-02-28T01:25:06.880Z,4.05
2023-02-28T01:27:34.619Z,5.50
2023-02-28T01:30:01.102Z,4.43
2023-02-28T01:32:27.573Z,5.10
2023-02-28T01:34:54.212Z,5.60
2023-02-28T01:37:20.733Z,5.45
2023-02-28T01:39:47.228Z,6.20
2023-02-28T01:42:13.747Z,4.70
2023-02-28T01:45:03.091Z,6.28
2023-02-28T01:47:36.349Z,5.47
2023-02-28T01:50:11.096Z,5.25
2023-02-28T01:52:37.833Z,5.53
2023-02-28T01:55:07.611Z,6.15
2023-02-28T01:57:38.795Z,5.25
2023-02-28T02:00:10.169Z,4.40
2023-02-28T02:02:40.176Z,5.13
2023-02-28T02:05:09.771Z,2.80
2023-02-28T02:07:39.774Z,4.43
2023-02-28T02:10:22.851Z,4.60
2023-02-28T02:13:22.522Z,4.95
2023-02-28T02:16:22.645Z,4.00
2023-02-28T02:18:55.603Z,6.43
2023-02-28T02:22:00.056Z,4.32
2023-02-28T02:25:07.972Z,3.38
2023-02-28T02:27:49.274Z,4.35
2023-02-28T02:30:42.579Z,4.43
2023-02-28T02:33:46.419Z,3.70
2023-02-28T02:36:24.890Z,4.47
2023-02-28T02:39:07.974Z,4.05
2023-02-28T02:41:41.825Z,4.47
2023-02-28T02:44:27.584Z,4.32
2023-02-28T02:47:02.959Z,3.97
2023-02-28T02:49:33.818Z,4.57
2023-02-28T02:52:10.979Z,4.88
2023-02-28T02:54:42.587Z,4.05
2023-02-28T02:57:13.593Z,9.18
2023-02-28T02:59:41.218Z,7.38
2023-02-28T03:02:17.060Z,3.90
2023-02-28T03:04:47.368Z,4.25
2023-02-28T03:07:13.838Z,5.28
2023-02-28T03:09:41.125Z,8.30
2023-02-28T03:12:11.277Z,4.80
2023-02-28T03:14:49.929Z,5.50
2023-02-28T03:17:51.968Z,5.85
2023-02-28T03:20:52.461Z,5.32
2023-02-28T03:23:29.046Z,4.18
2023-02-28T03:26:19.581Z,3.92
2023-02-28T03:29:08.658Z,5.93
2023-02-28T03:31:43.824Z,4.82
2023-02-28T03:34:22.781Z,4.90
2023-02-28T03:36:54.639Z,4.78
2023-02-28T03:39:28.466Z,4.85
2023-02-28T03:42:15.484Z,4.38
2023-02-28T03:44:48.935Z,4.43
2023-02-28T03:47:24.337Z,4.80
2023-02-28T03:49:55.447Z,4.68
2023-02-28T03:52:31.555Z,4.50
2023-02-28T03:55:03.672Z,5.85
2023-02-28T03:57:41.292Z,5.53
2023-02-28T04:00:22.841Z,5.25
2023-02-28T04:02:55.243Z,7.50
2023-02-28T04:05:22.510Z,6.65
2023-02-28T04:07:49.984Z,5.97
2023-02-28T04:10:17.254Z,8.05
2023-02-28T04:12:43.813Z,5.63
2023-02-28T04:15:11.554Z,6.20
2023-02-28T04:17:38.137Z,6.13
2023-02-28T04:20:10.577Z,5.38
2023-02-28T04:22:39.667Z,5.40
2023-02-28T04:25:07.480Z,6.80
2023-02-28T04:27:36.896Z,5.70
2023-02-28T04:30:03.907Z,4.78
2023-02-28T04:32:31.030Z,7.00
2023-02-28T04:34:57.601Z,5.93
2023-02-28T04:37:28.775Z,5.90
2023-02-28T04:39:56.102Z,7.67
2023-02-28T04:42:23.819Z,6.78
2023-02-28T04:44:50.294Z,5.33
2023-02-28T04:47:17.183Z,5.67
2023-02-28T04:49:43.864Z,5.53
2023-02-28T04:52:11.327Z,5.23
2023-02-28T04:54:39.780Z,7.03
2023-02-28T04:57:09.714Z,6.50
2023-02-28T04:59:36.157Z,7.93
2023-02-28T05:02:08.019Z,5.97
2023-02-28T05:04:35.426Z,7.07
2023-02-28T05:07:02.854Z,6.37
2023-02-28T05:09:29.927Z,6.40
2023-02-28T05:11:57.013Z,7.73
2023-02-28T05:14:26.470Z,6.87
2023-02-28T05:16:52.958Z,5.83
2023-02-28T05:19:19.433Z,5.93
2023-02-28T05:21:51.744Z,6.03
2023-02-28T05:24:23.700Z,7.77
2023-02-28T05:26:52.741Z,6.77
2023-02-28T05:29:19.361Z,5.37
2023-02-28T05:31:46.238Z,6.37
2023-02-28T05:34:13.541Z,11.67
2023-02-28T05:36:40.358Z,5.33
2023-02-28T05:39:08.742Z,6.67
2023-02-28T05:41:37.959Z,9.20
2023-02-28T05:44:04.471Z,8.27
2023-02-28T05:46:30.981Z,9.77
2023-02-28T05:48:58.867Z,10.10
2023-02-28T05:51:25.456Z,12.10
2023-02-28T05:53:55.725Z,10.17
2023-02-28T05:56:22.207Z,10.10
2023-02-28T05:58:50.192Z,9.97
2023-02-28T06:01:24.306Z,8.47
2023-02-28T06:03:52.334Z,13.23
2023-02-28T06:06:19.062Z,9.23
2023-02-28T06:08:46.696Z,9.33
2023-02-28T06:11:13.350Z,12.50
2023-02-28T06:13:39.940Z,9.77
2023-02-28T06:16:06.636Z,9.73
2023-02-28T06:18:33.121Z,12.47
2023-02-28T06:20:59.594Z,11.47
2023-02-28T06:23:26.101Z,9.50
2023-02-28T06:25:54.033Z,9.47
2023-02-28T06:28:20.656Z,10.20
2023-02-28T06:30:47.122Z,12.60
2023-02-28T06:33:13.585Z,13.07
2023-02-28T06:35:40.146Z,11.43
2023-02-28T06:38:07.573Z,19.67
2023-02-28T06:40:36.047Z,14.27
2023-02-28T06:43:03.343Z,9.83
2023-02-28T06:45:29.810Z,8.67
2023-02-28T06:47:56.325Z,6.90
2023-02-28T06:50:22.813Z,8.77
2023-02-28T06:52:49.263Z,9.63
2023-02-28T06:55:16.547Z,12.93
2023-02-28T06:57:43.140Z,12.18
2023-02-28T07:00:10.870Z,12.18
2023-02-28T07:02:38.545Z,14.55
2023-02-28T07:05:06.204Z,11.43
2023-02-28T07:07:33.324Z,9.45
2023-02-28T07:09:59.874Z,8.05
2023-02-28T07:12:26.340Z,5.78
2023-02-28T07:14:53.646Z,8.88
2023-02-28T07:17:23.261Z,9.15
2023-02-28T07:19:49.848Z,7.13
2023-02-28T07:22:16.651Z,8.73
2023-02-28T07:24:45.109Z,7.10
2023-02-28T07:27:11.986Z,6.55
2023-02-28T07:29:39.588Z,7.55
2023-02-28T07:32:06.349Z,9.88
2023-02-28T07:34:35.756Z,9.75
2023-02-28T07:37:04.735Z,8.18
2023-02-28T07:39:31.650Z,6.40
2023-02-28T07:41:58.132Z,8.05
2023-02-28T07:44:27.372Z,7.72
2023-02-28T07:46:54.106Z,6.32
2023-02-28T07:49:20.589Z,6.53
2023-02-28T07:51:49.649Z,9.32
2023-02-28T07:54:16.576Z,6.90
2023-02-28T07:56:43.057Z,7.20
2023-02-28T07:59:12.694Z,5.57
2023-02-28T08:01:39.234Z,7.28
2023-02-28T08:04:05.736Z,7.03
2023-02-28T08:06:36.165Z,5.68
2023-02-28T08:09:02.952Z,6.13
2023-02-28T08:11:29.997Z,4.32
2023-02-28T08:13:56.765Z,5.38
2023-02-28T08:16:23.535Z,5.78
2023-02-28T08:18:51.508Z,7.47
2023-02-28T08:21:18.345Z,5.43
2023-02-28T08:23:44.924Z,9.65
2023-02-28T08:26:11.933Z,7.43
2023-02-28T08:28:41.022Z,5.35
2023-02-28T08:31:11.692Z,6.07
2023-02-28T08:33:41.588Z,5.43
2023-02-28T08:36:09.137Z,6.68
2023-02-28T08:38:37.018Z,7.90
2023-02-28T08:41:08.069Z,5.60
2023-02-28T08:43:35.614Z,7.22
2023-02-28T08:46:02.301Z,6.55
2023-02-28T08:48:31.244Z,7.05
2023-02-28T08:51:08.789Z,9.73
2023-02-28T08:53:36.491Z,5.45
2023-02-28T08:56:05.476Z,6.43
2023-02-28T08:58:32.014Z,5.57
2023-02-28T09:00:58.673Z,6.15
2023-02-28T09:03:28.220Z,10.18
2023-02-28T09:05:56.523Z,5.80
2023-02-28T09:08:26.669Z,11.95
2023-02-28T09:10:58.070Z,7.32
2023-02-28T09:13:27.889Z,4.50
2023-02-28T09:15:58.624Z,5.72
2023-02-28T09:18:28.784Z,6.57
2023-02-28T09:20:55.688Z,4.43
2023-02-28T09:23:22.548Z,7.00
2023-02-28T09:25:51.114Z,5.57
2023-02-28T09:28:17.970Z,6.75
2023-02-28T09:30:49.813Z,4.28
2023-02-28T09:33:21.734Z,4.72
2023-02-28T09:35:49.321Z,4.25
2023-02-28T09:38:16.028Z,5.70
2023-02-28T09:40:52.697Z,4.60
2023-02-28T09:43:21.478Z,3.97
2023-02-28T09:46:07.846Z,6.43
2023-02-28T09:48:38.512Z,5.75
2023-02-28T09:51:30.302Z,4.18
2023-02-28T09:54:02.000Z,5.65
2023-02-28T09:56:34.367Z,5.57
2023-02-28T09:59:15.325Z,4.82
2023-02-28T10:01:56.544Z,5.47
2023-02-28T10:04:38.425Z,4.13
2023-02-28T10:07:20.304Z,6.00
2023-02-28T10:09:52.224Z,4.28
2023-02-28T10:12:20.631Z,12.45
2023-02-28T10:14:48.671Z,5.72
2023-02-28T10:17:20.888Z,7.03
2023-02-28T10:19:50.418Z,5.60
2023-02-28T10:22:51.899Z,6.25
2023-02-28T10:25:30.222Z,11.48
2023-02-28T10:28:11.187Z,4.65
2023-02-28T10:30:43.597Z,6.22
2023-02-28T10:33:38.894Z,6.10
2023-02-28T10:36:07.769Z,5.75
2023-02-28T10:38:38.262Z,5.25
2023-02-28T10:41:07.688Z,5.45
2023-02-28T10:43:34.931Z,4.93
2023-02-28T10:46:11.433Z,7.03
2023-02-28T10:48:40.249Z,5.65
2023-02-28T10:51:10.292Z,5.93
2023-02-28T10:53:59.248Z,3.92
2023-02-28T10:56:27.009Z,5.05
2023-02-28T10:59:02.697Z,4.63
2023-02-28T11:01:51.589Z,5.63
2023-02-28T11:04:42.524Z,6.43
2023-02-28T11:07:22.181Z,8.48
2023-02-28T11:09:53.570Z,6.68
2023-02-28T11:12:26.440Z,5.20
2023-02-28T11:15:16.296Z,4.95
2023-02-28T11:17:43.245Z,4.93
2023-02-28T11:20:21.921Z,6.13
2023-02-28T11:22:48.894Z,6.88
2023-02-28T11:25:37.806Z,5.45
2023-02-28T11:28:07.578Z,6.28
2023-02-28T11:30:35.775Z,5.95
2023-02-28T11:33:20.420Z,5.35
2023-02-28T11:35:49.445Z,4.93
2023-02-28T11:38:16.059Z,7.63
2023-02-28T11:40:50.507Z,6.35
2023-02-28T11:43:29.104Z,6.43
2023-02-28T11:46:13.221Z,5.47
2023-02-28T11:48:48.776Z,7.63
2023-02-28T11:51:38.847Z,7.00
2023-02-28T11:54:17.393Z,6.50
2023-02-28T11:56:49.478Z,5.72
2023-02-28T11:59:37.162Z,8.65
2023-02-28T12:02:35.134Z,5.93
2023-02-28T12:05:18.959Z,5.80
2023-02-28T12:07:51.509Z,5.53
2023-02-28T12:10:27.889Z,7.78
2023-02-28T12:13:33.100Z,7.45
2023-02-28T12:16:22.609Z,6.72
2023-02-28T12:19:10.966Z,6.95
2023-02-28T12:21:50.034Z,6.80
2023-02-28T12:24:45.744Z,8.43
2023-02-28T12:27:14.795Z,6.85
2023-02-28T12:29:49.636Z,6.68
2023-02-28T12:32:37.514Z,8.93
2023-02-28T12:35:09.736Z,7.22
2023-02-28T12:37:58.794Z,7.00
2023-02-28T12:40:30.717Z,8.15
2023-02-28T12:43:06.836Z,5.75
2023-02-28T12:45:54.687Z,8.13
2023-02-28T12:48:26.926Z,6.07
2023-02-28T12:50:53.628Z,6.47
2023-02-28T12:53:32.438Z,7.93
2023-02-28T12:56:09.532Z,6.68
2023-02-28T12:58:40.685Z,6.20
2023-02-28T13:01:28.975Z,6.32
2023-02-28T13:04:27.399Z,10.43
2023-02-28T13:07:34.169Z,8.85
2023-02-28T13:10:01.965Z,7.88
2023-02-28T13:12:28.580Z,6.47
2023-02-28T13:15:06.332Z,7.82
2023-02-28T13:17:41.243Z,7.30
2023-02-28T13:20:17.303Z,9.75
2023-02-28T13:22:50.158Z,5.90
2023-02-28T13:25:22.652Z,7.75
2023-02-28T13:27:57.872Z,7.28
2023-02-28T13:30:57.238Z,6.88
2023-02-28T13:33:29.504Z,8.00
2023-02-28T13:36:14.222Z,8.48
2023-02-28T13:38:49.153Z,7.22
2023-02-28T13:41:34.669Z,7.85
2023-02-28T13:44:08.281Z,7.10
2023-02-28T13:46:37.020Z,7.47
2023-02-28T13:49:37.581Z,9.02
2023-02-28T13:52:19.256Z,6.32
2023-02-28T13:54:59.361Z,9.05
2023-02-28T13:57:42.212Z,13.63
2023-02-28T14:00:27.391Z,8.80
2023-02-28T14:03:13.848Z,9.25
2023-02-28T14:05:40.491Z,6.53
2023-02-28T14:08:14.708Z,7.53
2023-02-28T14:10:52.645Z,6.65
2023-02-28T14:13:19.130Z,7.97
2023-02-28T14:15:50.155Z,6.38
2023-02-28T14:18:34.009Z,8.80
2023-02-28T14:21:10.540Z,11.63
2023-02-28T14:24:11.610Z,6.53
2023-02-28T14:26:57.264Z,6.90
2023-02-28T14:29:52.296Z,6.00
2023-02-28T14:32:35.956Z,6.18
2023-02-28T14:35:25.426Z,10.18
2023-02-28T14:37:52.771Z,22.35
2023-02-28T14:40:33.946Z,7.38
2023-02-28T14:43:06.463Z,7.85
2023-02-28T14:45:35.275Z,7.57
2023-02-28T14:48:03.929Z,9.65
2023-02-28T14:50:35.996Z,8.82
2023-02-28T14:53:03.309Z,7.55
2023-02-28T14:55:32.381Z,7.80
2023-02-28T14:58:07.674Z,8.43
2023-02-28T15:00:38.394Z,8.00
2023-02-28T15:03:24.126Z,7.10
2023-02-28T15:06:00.778Z,7.88
2023-02-28T15:08:30.011Z,9.48
2023-02-28T15:10:58.976Z,7.57
2023-02-28T15:13:46.057Z,7.30
2023-02-28T15:16:15.513Z,9.70
2023-02-28T15:18:51.411Z,7.03
2023-02-28T15:21:23.623Z,8.63
2023-02-28T15:24:16.492Z,9.82
2023-02-28T15:26:47.290Z,9.95
2023-02-28T15:29:20.614Z,11.38
2023-02-28T15:31:57.450Z,11.13
2023-02-28T15:34:43.987Z,11.10
2023-02-28T15:37:32.740Z,9.07
2023-02-28T15:40:17.713Z,11.02
2023-02-28T15:43:13.281Z,8.35
2023-02-28T15:45:45.875Z,13.68
2023-02-28T15:48:17.828Z,15.40
2023-02-28T15:50:44.405Z,10.68
2023-02-28T15:53:18.394Z,9.20
2023-02-28T15:55:46.136Z,10.05
2023-02-28T15:58:22.707Z,10.63
2023-02-28T16:01:01.726Z,10.05
2023-02-28T16:03:39.607Z,10.85
2023-02-28T16:06:21.660Z,10.48
2023-02-28T16:08:50.164Z,11.88
2023-02-28T16:11:18.138Z,15.57
2023-02-28T16:13:44.648Z,8.13
2023-02-28T16:16:20.533Z,9.55
2023-02-28T16:18:47.091Z,9.07
2023-02-28T16:21:13.620Z,18.15
2023-02-28T16:23:40.118Z,9.77
2023-02-28T16:26:07.638Z,9.57
2023-02-28T16:28:36.525Z,11.95
2023-02-28T16:31:08.228Z,17.33
2023-02-28T16:33:35.325Z,14.60
2023-02-28T16:36:02.617Z,16.05
2023-02-28T16:38:29.276Z,16.45
2023-02-28T16:40:57.245Z,13.52
2023-02-28T16:43:26.056Z,12.57
2023-02-28T16:45:58.412Z,13.48
2023-02-28T16:48:26.449Z,11.32
2023-02-28T16:50:52.900Z,15.40
2023-02-28T16:53:19.364Z,16.75
2023-02-28T16:55:46.284Z,14.73
2023-02-28T16:58:16.455Z,15.02
2023-02-28T17:00:42.940Z,10.70
2023-02-28T17:03:32.073Z,14.00
2023-02-28T17:05:59.458Z,13.95
2023-02-28T17:08:26.413Z,15.45
2023-02-28T17:10:52.988Z,13.00
2023-02-28T17:13:19.471Z,15.25
2023-02-28T17:15:47.570Z,17.02
2023-02-28T17:18:19.829Z,17.58
2023-02-28T17:20:46.983Z,19.55
2023-02-28T17:23:13.575Z,15.95
2023-02-28T17:25:40.084Z,17.42
2023-02-28T17:28:06.590Z,18.70
2023-02-28T17:30:34.995Z,17.20
2023-02-28T17:33:01.669Z,17.00
2023-02-28T17:35:28.702Z,17.60
2023-02-28T17:38:00.384Z,20.95
2023-02-28T17:40:26.880Z,19.45
2023-02-28T17:42:53.551Z,18.95
2023-02-28T17:45:20.773Z,17.27
2023-02-28T17:47:49.178Z,18.38
2023-02-28T17:50:22.615Z,18.60
2023-02-28T17:52:51.877Z,18.38
2023-02-28T17:55:19.976Z,17.25
2023-02-28T17:57:47.758Z,17.55
2023-02-28T18:00:16.892Z,20.73
2023-02-28T18:02:43.560Z,19.23
2023-02-28T18:05:12.180Z,19.48
2023-02-28T18:07:42.314Z,25.08
2023-02-28T18:10:16.133Z,28.85
2023-02-28T18:12:42.782Z,23.48
2023-02-28T18:15:10.572Z,21.15
2023-02-28T18:17:37.062Z,24.85
2023-02-28T18:20:07.155Z,21.52
2023-02-28T18:22:37.992Z,25.38
2023-02-28T18:25:05.833Z,24.00
2023-02-28T18:27:32.325Z,22.35
2023-02-28T18:29:58.812Z,23.63
2023-02-28T18:32:25.383Z,21.00
2023-02-28T18:34:51.990Z,22.45
2023-02-28T18:37:19.114Z,21.77
2023-02-28T18:39:51.078Z,22.15
2023-02-28T18:42:17.591Z,21.73
2023-02-28T18:44:44.122Z,22.70
2023-02-28T18:47:10.953Z,28.42
2023-02-28T18:49:38.207Z,32.88
2023-02-28T18:52:07.249Z,36.83
2023-02-28T18:54:36.146Z,35.28
2023-02-28T18:57:02.626Z,35.90
2023-02-28T18:59:29.159Z,37.88
2023-02-28T19:01:56.052Z,46.33
2023-02-28T19:04:22.692Z,56.95
2023-02-28T19:06:49.559Z,56.35
2023-02-28T19:09:16.030Z,55.30
2023-02-28T19:11:42.527Z,40.53
2023-02-28T19:14:09.613Z,36.53
2023-02-28T19:16:36.702Z,34.73
2023-02-28T19:19:03.490Z,31.63
2023-02-28T19:21:30.107Z,32.70
2023-02-28T19:23:56.645Z,34.03
2023-02-28T19:26:25.562Z,37.90
2023-02-28T19:28:52.822Z,52.92
2023-02-28T19:31:22.590Z,33.33
2023-02-28T19:33:49.548Z,31.38
2023-02-28T19:36:17.110Z,25.83
2023-02-28T19:38:44.887Z,28.07
2023-02-28T19:41:13.315Z,28.10
2023-02-28T19:43:40.159Z,35.00
2023-02-28T19:46:07.411Z,27.60
2023-02-28T19:48:34.150Z,25.00
2023-02-28T19:51:02.948Z,25.60
2023-02-28T19:53:30.582Z,22.40
2023-02-28T19:55:57.229Z,26.87
2023-02-28T19:58:25.302Z,21.67
2023-02-28T20:00:52.369Z,23.57
2023-02-28T20:03:19.149Z,26.03
2023-02-28T20:05:46.411Z,23.83
2023-02-28T20:08:16.201Z,27.20
2023-02-28T20:10:42.884Z,23.70
2023-02-28T20:13:09.820Z,23.73
2023-02-28T20:15:37.742Z,25.83
2023-02-28T20:18:04.804Z,26.67
2023-02-28T20:20:31.341Z,32.13
2023-02-28T20:22:57.831Z,28.30
2023-02-28T20:25:24.322Z,25.07
2023-02-28T20:27:50.852Z,23.67
2023-02-28T20:30:17.586Z,25.83
2023-02-28T20:32:44.074Z,25.33
2023-02-28T20:35:11.553Z,26.67
2023-02-28T20:37:42.319Z,26.83
2023-02-28T20:40:10.039Z,21.87
2023-02-28T20:42:36.525Z,23.20
2023-02-28T20:45:03.330Z,24.17
2023-02-28T20:47:37.203Z,25.67
2023-02-28T20:52:30.141Z,25.00
2023-02-28T20:54:56.620Z,23.47
2023-02-28T20:57:23.084Z,25.27
2023-02-28T20:59:49.560Z,25.63
2023-02-28T21:02:17.745Z,28.63
2023-02-28T21:04:44.512Z,27.53
2023-02-28T21:07:11.668Z,26.17
2023-02-28T21:09:39.560Z,23.27
2023-02-28T21:12:06.305Z,24.33
2023-02-28T21:14:33.513Z,23.70
2023-02-28T21:17:00.450Z,24.27
2023-02-28T21:19:28.898Z,21.33
2023-02-28T21:21:55.557Z,24.63
2023-02-28T21:24:23.758Z,24.33
2023-02-28T21:26:50.276Z,24.37
2023-02-28T21:29:16.848Z,22.60
2023-02-28T21:31:43.337Z,23.50
2023-02-28T21:34:12.912Z,26.57
2023-02-28T21:36:41.623Z,21.60
2023-02-28T21:39:13.351Z,21.43
2023-02-28T21:41:40.309Z,25.50
2023-02-28T21:44:06.778Z,23.57
2023-02-28T21:46:33.759Z,22.33
2023-02-28T21:49:00.506Z,23.07
2023-02-28T21:51:31.102Z,22.50
2023-02-28T21:53:59.986Z,20.33
2023-02-28T21:56:28.670Z,25.67
2023-02-28T21:59:01.745Z,20.27
2023-02-28T22:01:31.114Z,21.52
2023-02-28T22:04:00.839Z,25.07
2023-02-28T22:06:30.228Z,22.70
2023-02-28T22:08:59.449Z,21.40
2023-02-28T22:11:26.318Z,19.93
2023-02-28T22:13:53.921Z,21.50
2023-02-28T22:16:20.896Z,21.03
2023-02-28T22:18:47.406Z,24.73
2023-02-28T22:21:15.288Z,23.13
2023-02-28T22:23:42.463Z,23.27
2023-02-28T22:26:11.185Z,21.37
2023-02-28T22:28:37.875Z,19.20
2023-02-28T22:31:16.111Z,24.57
2023-02-28T22:33:43.457Z,18.87
2023-02-28T22:36:11.682Z,19.43
2023-02-28T22:38:38.722Z,20.83
2023-02-28T22:41:08.079Z,22.67
2023-02-28T22:43:34.742Z,18.73
2023-02-28T22:46:03.955Z,23.90
2023-02-28T22:48:30.873Z,21.20
2023-02-28T22:51:05.832Z,19.83
2023-02-28T22:53:37.734Z,18.73
2023-02-28T22:56:05.912Z,19.33
2023-02-28T22:58:32.564Z,16.67
2023-02-28T23:01:06.354Z,17.90
2023-02-28T23:03:32.847Z,18.85
2023-02-28T23:06:01.777Z,19.57
2023-02-28T23:08:28.359Z,17.83
2023-02-28T23:10:54.833Z,16.57
2023-02-28T23:13:21.360Z,18.80
2023-02-28T23:15:48.390Z,21.20
2023-02-28T23:18:15.666Z,19.40
2023-02-28T23:20:42.307Z,20.57
2023-02-28T23:23:11.082Z,20.47
2023-02-28T23:25:41.735Z,19.87
2023-02-28T23:28:12.104Z,24.20
2023-02-28T23:30:39.253Z,19.50
2023-02-28T23:33:06.708Z,19.57
2023-02-28T23:35:34.016Z,19.77
2023-02-28T23:38:00.842Z,20.07
2023-02-28T23:40:27.696Z,22.17
2023-02-28T23:42:54.291Z,16.63
2023-02-28T23:45:23.838Z,18.70
2023-02-28T23:47:50.305Z,20.73
2023-02-28T23:50:17.648Z,19.73
2023-02-28T23:52:44.135Z,18.50
2023-02-28T23:55:10.868Z,21.57
2023-02-28T23:57:37.349Z,18.10
